sensor_id;sensor_type;location;lat;lon;timestamp;P1;durP1;ratioP1;P2;durP2;ratioP2
69030;SDS011;56083;48.774;8.942;2023-11-19T00:01:36;9.75;;;5.25;;
69030;SDS011;56083;48.774;8.942;2023-11-19T00:04:05;8.00;;;4.50;;
69030;SDS011;56083;48.774;8.942;2023-11-19T00:06:33;8.57;;;4.90;;
69030;SDS011;56083;48.774;8.942;2023-11-19T00:08:59;9.95;;;5.20;;
69030;SDS011;56083;48.774;8.942;2023-11-19T00:11:28;7.85;;;4.57;;
69030;SDS011;56083;48.774;8.942;2023-11-19T00:13:55;12.38;;;3.75;;
69030;SDS011;56083;48.774;8.942;2023-11-19T00:16:22;7.85;;;4.15;;
69030;SDS011;56083;48.774;8.942;2023-11-19T00:18:48;8.75;;;3.83;;
69030;SDS011;56083;48.774;8.942;2023-11-19T00:21:15;5.30;;;3.47;;
69030;SDS011;56083;48.774;8.942;2023-11-19T00:23:42;12.52;;;5.75;;
69030;SDS011;56083;48.774;8.942;2023-11-19T00:26:09;13.15;;;6.20;;
69030;SDS011;56083;48.774;8.942;2023-11-19T00:28:35;18.08;;;7.90;;
69030;SDS011;56083;48.774;8.942;2023-11-19T00:31:03;6.53;;;3.50;;
69030;SDS011;56083;48.774;8.942;2023-11-19T00:33:30;4.82;;;1.50;;
69030;SDS011;56083;48.774;8.942;2023-11-19T00:35:56;2.53;;;1.27;;
69030;SDS011;56083;48.774;8.942;2023-11-19T00:38:23;1.92;;;1.13;;
69030;SDS011;56083;48.774;8.942;2023-11-19T00:40:50;1.00;;;0.75;;
69030;SDS011;56083;48.774;8.942;2023-11-19T00:43:17;0.73;;;0.57;;
69030;SDS011;56083;48.774;8.942;2023-11-19T00:45:47;0.75;;;0.70;;
69030;SDS011;56083;48.774;8.942;2023-11-19T00:48:15;1.58;;;0.70;;
69030;SDS011;56083;48.774;8.942;2023-11-19T00:50:42;0.75;;;0.60;;
69030;SDS011;56083;48.774;8.942;2023-11-19T00:53:10;3.05;;;1.00;;
69030;SDS011;56083;48.774;8.942;2023-11-19T00:55:37;2.90;;;1.20;;
69030;SDS011;56083;48.774;8.942;2023-11-19T00:58:03;3.53;;;1.20;;
69030;SDS011;56083;48.774;8.942;2023-11-19T01:00:30;4.30;;;1.63;;
69030;SDS011;56083;48.774;8.942;2023-11-19T01:02:57;1.52;;;0.90;;
69030;SDS011;56083;48.774;8.942;2023-11-19T01:05:25;2.05;;;1.00;;
69030;SDS011;56083;48.774;8.942;2023-11-19T01:07:53;1.35;;;0.70;;
69030;SDS011;56083;48.774;8.942;2023-11-19T01:10:20;0.75;;;0.52;;
69030;SDS011;56083;48.774;8.942;2023-11-19T01:12:47;2.38;;;0.63;;
69030;SDS011;56083;48.774;8.942;2023-11-19T01:15:14;1.13;;;0.45;;
69030;SDS011;56083;48.774;8.942;2023-11-19T01:17:43;0.73;;;0.60;;
69030;SDS011;56083;48.774;8.942;2023-11-19T01:20:10;2.63;;;0.60;;
69030;SDS011;56083;48.774;8.942;2023-11-19T01:22:38;1.10;;;0.50;;
69030;SDS011;56083;48.774;8.942;2023-11-19T01:25:05;0.85;;;0.63;;
69030;SDS011;56083;48.774;8.942;2023-11-19T01:27:32;1.52;;;0.60;;
69030;SDS011;56083;48.774;8.942;2023-11-19T01:30:00;0.88;;;0.60;;
69030;SDS011;56083;48.774;8.942;2023-11-19T01:32:31;2.38;;;0.68;;
69030;SDS011;56083;48.774;8.942;2023-11-19T01:34:57;0.77;;;0.60;;
69030;SDS011;56083;48.774;8.942;2023-11-19T01:37:24;1.05;;;0.50;;
69030;SDS011;56083;48.774;8.942;2023-11-19T01:39:51;0.70;;;0.50;;
69030;SDS011;56083;48.774;8.942;2023-11-19T01:42:18;0.95;;;0.63;;
69030;SDS011;56083;48.774;8.942;2023-11-19T01:44:54;2.58;;;0.60;;
69030;SDS011;56083;48.774;8.942;2023-11-19T01:47:21;2.25;;;0.60;;
69030;SDS011;56083;48.774;8.942;2023-11-19T01:49:47;2.88;;;0.60;;
69030;SDS011;56083;48.774;8.942;2023-11-19T01:52:15;1.52;;;0.60;;
69030;SDS011;56083;48.774;8.942;2023-11-19T01:54:42;2.47;;;0.50;;
69030;SDS011;56083;48.774;8.942;2023-11-19T01:57:10;1.60;;;0.70;;
69030;SDS011;56083;48.774;8.942;2023-11-19T01:59:37;5.88;;;0.60;;
69030;SDS011;56083;48.774;8.942;2023-11-19T02:02:04;3.00;;;0.70;;
69030;SDS011;56083;48.774;8.942;2023-11-19T02:04:31;1.77;;;0.60;;
69030;SDS011;56083;48.774;8.942;2023-11-19T02:06:59;2.95;;;0.40;;
69030;SDS011;56083;48.774;8.942;2023-11-19T02:09:26;1.15;;;0.50;;
69030;SDS011;56083;48.774;8.942;2023-11-19T02:11:53;1.27;;;0.50;;
69030;SDS011;56083;48.774;8.942;2023-11-19T02:14:21;0.88;;;0.50;;
69030;SDS011;56083;48.774;8.942;2023-11-19T02:16:50;0.70;;;0.50;;
69030;SDS011;56083;48.774;8.942;2023-11-19T02:19:20;5.47;;;0.60;;
69030;SDS011;56083;48.774;8.942;2023-11-19T02:21:47;1.23;;;0.50;;
69030;SDS011;56083;48.774;8.942;2023-11-19T02:24:14;1.02;;;0.40;;
69030;SDS011;56083;48.774;8.942;2023-11-19T02:29:22;0.75;;;0.40;;
69030;SDS011;56083;48.774;8.942;2023-11-19T02:31:49;1.98;;;0.60;;
69030;SDS011;56083;48.774;8.942;2023-11-19T02:34:16;1.00;;;0.55;;
69030;SDS011;56083;48.774;8.942;2023-11-19T02:36:42;0.43;;;0.40;;
69030;SDS011;56083;48.774;8.942;2023-11-19T02:39:09;2.80;;;0.40;;
69030;SDS011;56083;48.774;8.942;2023-11-19T02:41:38;4.07;;;0.70;;
69030;SDS011;56083;48.774;8.942;2023-11-19T02:44:06;10.13;;;0.60;;
69030;SDS011;56083;48.774;8.942;2023-11-19T02:46:33;2.58;;;0.50;;
69030;SDS011;56083;48.774;8.942;2023-11-19T02:49:00;0.40;;;0.20;;
69030;SDS011;56083;48.774;8.942;2023-11-19T02:51:26;0.30;;;0.20;;
69030;SDS011;56083;48.774;8.942;2023-11-19T02:53:53;1.00;;;0.20;;
69030;SDS011;56083;48.774;8.942;2023-11-19T02:56:20;2.22;;;0.30;;
69030;SDS011;56083;48.774;8.942;2023-11-19T02:58:54;0.20;;;0.20;;
69030;SDS011;56083;48.774;8.942;2023-11-19T03:01:21;0.77;;;0.28;;
69030;SDS011;56083;48.774;8.942;2023-11-19T03:03:54;0.80;;;0.30;;
69030;SDS011;56083;48.774;8.942;2023-11-19T03:06:22;2.67;;;0.20;;
69030;SDS011;56083;48.774;8.942;2023-11-19T03:08:48;0.40;;;0.20;;
69030;SDS011;56083;48.774;8.942;2023-11-19T03:11:15;0.47;;;0.20;;
69030;SDS011;56083;48.774;8.942;2023-11-19T03:13:42;2.42;;;0.38;;
69030;SDS011;56083;48.774;8.942;2023-11-19T03:16:08;1.90;;;0.32;;
69030;SDS011;56083;48.774;8.942;2023-11-19T03:18:36;2.38;;;0.30;;
69030;SDS011;56083;48.774;8.942;2023-11-19T03:21:05;0.40;;;0.20;;
69030;SDS011;56083;48.774;8.942;2023-11-19T03:23:33;0.20;;;0.20;;
69030;SDS011;56083;48.774;8.942;2023-11-19T03:26:00;4.35;;;0.32;;
69030;SDS011;56083;48.774;8.942;2023-11-19T03:28:29;1.98;;;0.10;;
69030;SDS011;56083;48.774;8.942;2023-11-19T03:30:56;3.70;;;0.32;;
69030;SDS011;56083;48.774;8.942;2023-11-19T03:33:22;2.47;;;0.20;;
69030;SDS011;56083;48.774;8.942;2023-11-19T03:35:50;0.25;;;0.20;;
69030;SDS011;56083;48.774;8.942;2023-11-19T03:38:17;1.23;;;0.20;;
69030;SDS011;56083;48.774;8.942;2023-11-19T03:40:44;1.83;;;0.30;;
69030;SDS011;56083;48.774;8.942;2023-11-19T03:43:11;3.72;;;0.22;;
69030;SDS011;56083;48.774;8.942;2023-11-19T03:45:37;0.90;;;0.20;;
69030;SDS011;56083;48.774;8.942;2023-11-19T03:48:04;0.95;;;0.20;;
69030;SDS011;56083;48.774;8.942;2023-11-19T03:50:31;0.50;;;0.20;;
69030;SDS011;56083;48.774;8.942;2023-11-19T03:52:58;0.20;;;0.15;;
69030;SDS011;56083;48.774;8.942;2023-11-19T03:55:25;0.13;;;0.10;;
69030;SDS011;56083;48.774;8.942;2023-11-19T03:57:51;2.92;;;0.20;;
69030;SDS011;56083;48.774;8.942;2023-11-19T04:00:18;1.08;;;0.17;;
69030;SDS011;56083;48.774;8.942;2023-11-19T04:02:46;3.47;;;0.20;;
69030;SDS011;56083;48.774;8.942;2023-11-19T04:05:13;0.40;;;0.30;;
69030;SDS011;56083;48.774;8.942;2023-11-19T04:07:39;0.52;;;0.10;;
69030;SDS011;56083;48.774;8.942;2023-11-19T04:10:06;0.52;;;0.20;;
69030;SDS011;56083;48.774;8.942;2023-11-19T04:12:33;0.75;;;0.10;;
69030;SDS011;56083;48.774;8.942;2023-11-19T04:14:59;0.30;;;0.20;;
69030;SDS011;56083;48.774;8.942;2023-11-19T04:17:26;0.15;;;0.10;;
69030;SDS011;56083;48.774;8.942;2023-11-19T04:19:53;0.40;;;0.20;;
69030;SDS011;56083;48.774;8.942;2023-11-19T04:22:20;1.17;;;0.30;;
69030;SDS011;56083;48.774;8.942;2023-11-19T04:24:47;1.10;;;0.17;;
69030;SDS011;56083;48.774;8.942;2023-11-19T04:27:14;0.13;;;0.10;;
69030;SDS011;56083;48.774;8.942;2023-11-19T04:29:40;0.40;;;0.10;;
69030;SDS011;56083;48.774;8.942;2023-11-19T04:32:07;0.35;;;0.08;;
69030;SDS011;56083;48.774;8.942;2023-11-19T04:34:34;0.10;;;0.10;;
69030;SDS011;56083;48.774;8.942;2023-11-19T04:37:01;0.60;;;0.10;;
69030;SDS011;56083;48.774;8.942;2023-11-19T04:39:29;1.38;;;0.20;;
69030;SDS011;56083;48.774;8.942;2023-11-19T04:41:55;0.10;;;0.10;;
69030;SDS011;56083;48.774;8.942;2023-11-19T04:44:22;2.20;;;0.10;;
69030;SDS011;56083;48.774;8.942;2023-11-19T04:46:48;0.22;;;0.10;;
69030;SDS011;56083;48.774;8.942;2023-11-19T04:49:15;0.90;;;0.20;;
69030;SDS011;56083;48.774;8.942;2023-11-19T04:51:43;0.10;;;0.10;;
69030;SDS011;56083;48.774;8.942;2023-11-19T04:54:13;0.10;;;0.10;;
69030;SDS011;56083;48.774;8.942;2023-11-19T04:56:40;1.75;;;0.10;;
69030;SDS011;56083;48.774;8.942;2023-11-19T04:59:06;1.10;;;0.10;;
69030;SDS011;56083;48.774;8.942;2023-11-19T05:01:33;4.32;;;0.50;;
69030;SDS011;56083;48.774;8.942;2023-11-19T05:04:00;1.70;;;0.57;;
69030;SDS011;56083;48.774;8.942;2023-11-19T05:06:27;6.75;;;0.20;;
69030;SDS011;56083;48.774;8.942;2023-11-19T05:08:55;1.83;;;0.30;;
69030;SDS011;56083;48.774;8.942;2023-11-19T05:11:21;0.68;;;0.20;;
69030;SDS011;56083;48.774;8.942;2023-11-19T05:13:48;7.18;;;4.28;;
69030;SDS011;56083;48.774;8.942;2023-11-19T05:16:15;55.88;;;46.10;;
69030;SDS011;56083;48.774;8.942;2023-11-19T05:18:42;37.83;;;31.75;;
69030;SDS011;56083;48.774;8.942;2023-11-19T05:21:10;22.70;;;15.57;;
69030;SDS011;56083;48.774;8.942;2023-11-19T05:23:37;8.10;;;5.72;;
69030;SDS011;56083;48.774;8.942;2023-11-19T05:26:04;1.42;;;0.57;;
69030;SDS011;56083;48.774;8.942;2023-11-19T05:28:30;23.95;;;19.05;;
69030;SDS011;56083;48.774;8.942;2023-11-19T05:30:57;9.85;;;8.93;;
69030;SDS011;56083;48.774;8.942;2023-11-19T05:33:24;3.38;;;1.90;;
69030;SDS011;56083;48.774;8.942;2023-11-19T05:35:51;2.00;;;0.88;;
69030;SDS011;56083;48.774;8.942;2023-11-19T05:38:17;1.65;;;0.32;;
69030;SDS011;56083;48.774;8.942;2023-11-19T05:40:44;0.43;;;0.20;;
69030;SDS011;56083;48.774;8.942;2023-11-19T05:43:13;2.67;;;0.50;;
69030;SDS011;56083;48.774;8.942;2023-11-19T05:45:41;1.65;;;1.25;;
69030;SDS011;56083;48.774;8.942;2023-11-19T05:48:08;0.85;;;0.50;;
69030;SDS011;56083;48.774;8.942;2023-11-19T05:50:35;1.27;;;0.85;;
69030;SDS011;56083;48.774;8.942;2023-11-19T05:53:01;3.03;;;1.98;;
69030;SDS011;56083;48.774;8.942;2023-11-19T05:55:30;1.13;;;0.70;;
69030;SDS011;56083;48.774;8.942;2023-11-19T05:57:57;0.68;;;0.50;;
69030;SDS011;56083;48.774;8.942;2023-11-19T06:00:24;2.58;;;1.02;;
69030;SDS011;56083;48.774;8.942;2023-11-19T06:02:52;6.85;;;5.70;;
69030;SDS011;56083;48.774;8.942;2023-11-19T06:05:18;0.43;;;0.40;;
69030;SDS011;56083;48.774;8.942;2023-11-19T06:07:45;3.47;;;1.83;;
69030;SDS011;56083;48.774;8.942;2023-11-19T06:10:11;6.40;;;0.70;;
69030;SDS011;56083;48.774;8.942;2023-11-19T06:12:41;3.10;;;0.90;;
69030;SDS011;56083;48.774;8.942;2023-11-19T06:15:08;2.35;;;0.60;;
69030;SDS011;56083;48.774;8.942;2023-11-19T06:17:35;2.70;;;0.70;;
69030;SDS011;56083;48.774;8.942;2023-11-19T06:20:01;1.80;;;0.50;;
69030;SDS011;56083;48.774;8.942;2023-11-19T06:22:29;1.05;;;0.40;;
69030;SDS011;56083;48.774;8.942;2023-11-19T06:24:56;1.40;;;0.40;;
69030;SDS011;56083;48.774;8.942;2023-11-19T06:27:23;1.98;;;0.82;;
69030;SDS011;56083;48.774;8.942;2023-11-19T06:29:50;1.20;;;0.55;;
69030;SDS011;56083;48.774;8.942;2023-11-19T06:32:16;0.60;;;0.50;;
69030;SDS011;56083;48.774;8.942;2023-11-19T06:34:42;1.52;;;0.60;;
69030;SDS011;56083;48.774;8.942;2023-11-19T06:37:08;0.60;;;0.50;;
69030;SDS011;56083;48.774;8.942;2023-11-19T06:39:35;1.38;;;0.40;;
69030;SDS011;56083;48.774;8.942;2023-11-19T06:42:03;0.80;;;0.50;;
69030;SDS011;56083;48.774;8.942;2023-11-19T06:44:29;1.00;;;0.80;;
69030;SDS011;56083;48.774;8.942;2023-11-19T06:46:56;4.18;;;1.40;;
69030;SDS011;56083;48.774;8.942;2023-11-19T06:49:22;3.35;;;1.50;;
69030;SDS011;56083;48.774;8.942;2023-11-19T06:51:49;3.08;;;1.60;;
69030;SDS011;56083;48.774;8.942;2023-11-19T06:54:15;1.98;;;1.00;;
69030;SDS011;56083;48.774;8.942;2023-11-19T06:56:41;4.57;;;1.45;;
69030;SDS011;56083;48.774;8.942;2023-11-19T06:59:08;4.97;;;1.88;;
69030;SDS011;56083;48.774;8.942;2023-11-19T07:01:35;3.00;;;1.60;;
69030;SDS011;56083;48.774;8.942;2023-11-19T07:04:02;6.32;;;1.88;;
69030;SDS011;56083;48.774;8.942;2023-11-19T07:06:34;7.63;;;4.05;;
69030;SDS011;56083;48.774;8.942;2023-11-19T07:09:00;4.80;;;1.98;;
69030;SDS011;56083;48.774;8.942;2023-11-19T07:11:34;3.30;;;2.20;;
69030;SDS011;56083;48.774;8.942;2023-11-19T07:14:04;4.40;;;2.90;;
69030;SDS011;56083;48.774;8.942;2023-11-19T07:16:31;7.13;;;3.47;;
69030;SDS011;56083;48.774;8.942;2023-11-19T07:19:02;5.53;;;2.72;;
69030;SDS011;56083;48.774;8.942;2023-11-19T07:21:28;4.00;;;2.08;;
69030;SDS011;56083;48.774;8.942;2023-11-19T07:23:57;0.93;;;0.80;;
69030;SDS011;56083;48.774;8.942;2023-11-19T07:26:22;3.42;;;1.50;;
69030;SDS011;56083;48.774;8.942;2023-11-19T07:28:49;2.45;;;0.77;;
69030;SDS011;56083;48.774;8.942;2023-11-19T07:31:15;3.60;;;1.20;;
69030;SDS011;56083;48.774;8.942;2023-11-19T07:33:46;1.92;;;1.10;;
69030;SDS011;56083;48.774;8.942;2023-11-19T07:36:13;1.15;;;0.68;;
69030;SDS011;56083;48.774;8.942;2023-11-19T07:38:38;1.45;;;0.57;;
69030;SDS011;56083;48.774;8.942;2023-11-19T07:41:05;1.92;;;0.40;;
69030;SDS011;56083;48.774;8.942;2023-11-19T07:43:32;1.02;;;0.40;;
69030;SDS011;56083;48.774;8.942;2023-11-19T07:45:58;4.07;;;0.40;;
69030;SDS011;56083;48.774;8.942;2023-11-19T07:48:24;3.03;;;1.90;;
69030;SDS011;56083;48.774;8.942;2023-11-19T07:50:51;1.80;;;1.23;;
69030;SDS011;56083;48.774;8.942;2023-11-19T07:53:18;3.10;;;0.75;;
69030;SDS011;56083;48.774;8.942;2023-11-19T07:55:45;1.63;;;1.30;;
69030;SDS011;56083;48.774;8.942;2023-11-19T07:58:12;0.95;;;0.47;;
69030;SDS011;56083;48.774;8.942;2023-11-19T08:00:37;1.02;;;0.52;;
69030;SDS011;56083;48.774;8.942;2023-11-19T08:03:03;4.15;;;1.75;;
69030;SDS011;56083;48.774;8.942;2023-11-19T08:05:30;2.95;;;1.67;;
69030;SDS011;56083;48.774;8.942;2023-11-19T08:07:56;1.05;;;0.60;;
69030;SDS011;56083;48.774;8.942;2023-11-19T08:10:22;1.92;;;0.50;;
69030;SDS011;56083;48.774;8.942;2023-11-19T08:12:48;1.95;;;0.90;;
69030;SDS011;56083;48.774;8.942;2023-11-19T08:15:14;2.03;;;0.68;;
69030;SDS011;56083;48.774;8.942;2023-11-19T08:17:40;1.15;;;0.50;;
69030;SDS011;56083;48.774;8.942;2023-11-19T08:20:07;1.38;;;0.40;;
69030;SDS011;56083;48.774;8.942;2023-11-19T08:22:37;4.35;;;0.70;;
69030;SDS011;56083;48.774;8.942;2023-11-19T08:25:04;1.73;;;0.75;;
69030;SDS011;56083;48.774;8.942;2023-11-19T08:27:33;3.38;;;0.80;;
69030;SDS011;56083;48.774;8.942;2023-11-19T08:29:59;1.35;;;0.90;;
69030;SDS011;56083;48.774;8.942;2023-11-19T08:32:24;3.03;;;1.02;;
69030;SDS011;56083;48.774;8.942;2023-11-19T08:34:51;1.90;;;1.30;;
69030;SDS011;56083;48.774;8.942;2023-11-19T08:37:16;1.55;;;0.80;;
69030;SDS011;56083;48.774;8.942;2023-11-19T08:39:47;3.20;;;0.70;;
69030;SDS011;56083;48.774;8.942;2023-11-19T08:42:13;1.23;;;0.60;;
69030;SDS011;56083;48.774;8.942;2023-11-19T08:44:39;5.40;;;1.20;;
69030;SDS011;56083;48.774;8.942;2023-11-19T08:47:08;1.60;;;0.70;;
69030;SDS011;56083;48.774;8.942;2023-11-19T08:49:34;3.00;;;1.40;;
69030;SDS011;56083;48.774;8.942;2023-11-19T08:52:00;8.02;;;3.95;;
69030;SDS011;56083;48.774;8.942;2023-11-19T08:54:26;13.32;;;6.97;;
69030;SDS011;56083;48.774;8.942;2023-11-19T08:56:52;8.93;;;5.95;;
69030;SDS011;56083;48.774;8.942;2023-11-19T08:59:18;17.50;;;10.05;;
69030;SDS011;56083;48.774;8.942;2023-11-19T09:01:44;8.30;;;5.32;;
69030;SDS011;56083;48.774;8.942;2023-11-19T09:04:10;4.28;;;2.08;;
69030;SDS011;56083;48.774;8.942;2023-11-19T09:06:38;2.42;;;1.45;;
69030;SDS011;56083;48.774;8.942;2023-11-19T09:09:05;7.15;;;2.70;;
69030;SDS011;56083;48.774;8.942;2023-11-19T09:11:31;2.10;;;0.98;;
69030;SDS011;56083;48.774;8.942;2023-11-19T09:13:57;3.95;;;1.88;;
69030;SDS011;56083;48.774;8.942;2023-11-19T09:16:23;4.25;;;0.77;;
69030;SDS011;56083;48.774;8.942;2023-11-19T09:18:50;1.45;;;0.70;;
69030;SDS011;56083;48.774;8.942;2023-11-19T09:21:16;1.75;;;0.60;;
69030;SDS011;56083;48.774;8.942;2023-11-19T09:23:41;1.73;;;0.60;;
69030;SDS011;56083;48.774;8.942;2023-11-19T09:26:10;3.28;;;0.80;;
69030;SDS011;56083;48.774;8.942;2023-11-19T09:28:36;3.15;;;1.20;;
69030;SDS011;56083;48.774;8.942;2023-11-19T09:31:02;3.05;;;0.80;;
69030;SDS011;56083;48.774;8.942;2023-11-19T09:33:30;4.63;;;0.75;;
69030;SDS011;56083;48.774;8.942;2023-11-19T09:35:56;1.45;;;0.40;;
69030;SDS011;56083;48.774;8.942;2023-11-19T09:38:22;1.95;;;0.70;;
69030;SDS011;56083;48.774;8.942;2023-11-19T09:40:48;2.95;;;0.98;;
69030;SDS011;56083;48.774;8.942;2023-11-19T09:43:15;1.80;;;0.50;;
69030;SDS011;56083;48.774;8.942;2023-11-19T09:45:58;4.65;;;0.75;;
69030;SDS011;56083;48.774;8.942;2023-11-19T09:48:32;1.92;;;1.00;;
69030;SDS011;56083;48.774;8.942;2023-11-19T09:50:59;3.83;;;0.77;;
69030;SDS011;56083;48.774;8.942;2023-11-19T09:53:25;2.22;;;0.80;;
69030;SDS011;56083;48.774;8.942;2023-11-19T09:55:51;3.42;;;0.75;;
69030;SDS011;56083;48.774;8.942;2023-11-19T09:58:18;1.40;;;0.70;;
69030;SDS011;56083;48.774;8.942;2023-11-19T10:00:43;2.45;;;0.90;;
69030;SDS011;56083;48.774;8.942;2023-11-19T10:03:12;3.35;;;1.30;;
69030;SDS011;56083;48.774;8.942;2023-11-19T10:05:40;1.95;;;0.80;;
69030;SDS011;56083;48.774;8.942;2023-11-19T10:08:06;3.15;;;0.90;;
69030;SDS011;56083;48.774;8.942;2023-11-19T10:10:35;1.50;;;0.60;;
69030;SDS011;56083;48.774;8.942;2023-11-19T10:13:00;1.58;;;0.60;;
69030;SDS011;56083;48.774;8.942;2023-11-19T10:15:33;3.95;;;0.95;;
69030;SDS011;56083;48.774;8.942;2023-11-19T10:18:05;1.67;;;0.70;;
69030;SDS011;56083;48.774;8.942;2023-11-19T10:20:36;3.15;;;0.80;;
69030;SDS011;56083;48.774;8.942;2023-11-19T10:23:03;2.55;;;0.77;;
69030;SDS011;56083;48.774;8.942;2023-11-19T10:25:29;2.65;;;0.73;;
69030;SDS011;56083;48.774;8.942;2023-11-19T10:27:55;3.03;;;0.60;;
69030;SDS011;56083;48.774;8.942;2023-11-19T10:30:22;1.40;;;0.40;;
69030;SDS011;56083;48.774;8.942;2023-11-19T10:38:17;3.58;;;0.50;;
69030;SDS011;56083;48.774;8.942;2023-11-19T10:40:42;3.88;;;0.60;;
69030;SDS011;56083;48.774;8.942;2023-11-19T10:43:09;1.38;;;0.50;;
69030;SDS011;56083;48.774;8.942;2023-11-19T10:45:36;3.78;;;0.50;;
69030;SDS011;56083;48.774;8.942;2023-11-19T10:48:05;1.27;;;0.50;;
69030;SDS011;56083;48.774;8.942;2023-11-19T10:50:35;2.22;;;0.60;;
69030;SDS011;56083;48.774;8.942;2023-11-19T10:53:04;2.47;;;0.50;;
69030;SDS011;56083;48.774;8.942;2023-11-19T10:55:36;2.47;;;0.68;;
69030;SDS011;56083;48.774;8.942;2023-11-19T10:58:10;2.33;;;0.77;;
69030;SDS011;56083;48.774;8.942;2023-11-19T11:00:43;5.13;;;0.75;;
69030;SDS011;56083;48.774;8.942;2023-11-19T11:03:20;2.70;;;0.70;;
69030;SDS011;56083;48.774;8.942;2023-11-19T11:05:48;3.05;;;0.70;;
69030;SDS011;56083;48.774;8.942;2023-11-19T11:08:15;1.95;;;0.98;;
69030;SDS011;56083;48.774;8.942;2023-11-19T11:10:42;2.97;;;0.93;;
69030;SDS011;56083;48.774;8.942;2023-11-19T11:13:09;4.40;;;1.00;;
69030;SDS011;56083;48.774;8.942;2023-11-19T11:15:37;5.95;;;1.00;;
69030;SDS011;56083;48.774;8.942;2023-11-19T11:18:03;3.53;;;1.20;;
69030;SDS011;56083;48.774;8.942;2023-11-19T11:20:32;2.88;;;0.90;;
69030;SDS011;56083;48.774;8.942;2023-11-19T11:39:21;6.18;;;1.00;;
69030;SDS011;56083;48.774;8.942;2023-11-19T11:41:58;3.00;;;0.80;;
69030;SDS011;56083;48.774;8.942;2023-11-19T11:47:23;3.97;;;0.75;;
69030;SDS011;56083;48.774;8.942;2023-11-19T11:49:50;11.02;;;1.15;;
69030;SDS011;56083;48.774;8.942;2023-11-19T11:52:17;1.92;;;0.50;;
69030;SDS011;56083;48.774;8.942;2023-11-19T11:54:43;2.03;;;0.50;;
69030;SDS011;56083;48.774;8.942;2023-11-19T11:57:10;2.53;;;0.60;;
69030;SDS011;56083;48.774;8.942;2023-11-19T11:59:46;2.47;;;0.70;;
69030;SDS011;56083;48.774;8.942;2023-11-19T12:02:14;3.22;;;1.38;;
69030;SDS011;56083;48.774;8.942;2023-11-19T12:04:43;1.77;;;0.60;;
69030;SDS011;56083;48.774;8.942;2023-11-19T12:07:13;2.17;;;0.45;;
69030;SDS011;56083;48.774;8.942;2023-11-19T12:09:42;2.47;;;0.70;;
69030;SDS011;56083;48.774;8.942;2023-11-19T12:20:09;2.00;;;0.60;;
69030;SDS011;56083;48.774;8.942;2023-11-19T12:22:39;1.88;;;0.50;;
69030;SDS011;56083;48.774;8.942;2023-11-19T12:25:08;3.20;;;0.75;;
69030;SDS011;56083;48.774;8.942;2023-11-19T12:27:35;2.22;;;0.85;;
69030;SDS011;56083;48.774;8.942;2023-11-19T12:30:01;2.63;;;0.68;;
69030;SDS011;56083;48.774;8.942;2023-11-19T12:32:39;3.55;;;0.75;;
69030;SDS011;56083;48.774;8.942;2023-11-19T12:35:06;2.03;;;0.77;;
69030;SDS011;56083;48.774;8.942;2023-11-19T12:42:42;2.10;;;0.68;;
69030;SDS011;56083;48.774;8.942;2023-11-19T12:45:14;3.60;;;0.60;;
69030;SDS011;56083;48.774;8.942;2023-11-19T12:47:41;3.17;;;0.73;;
69030;SDS011;56083;48.774;8.942;2023-11-19T12:50:14;1.95;;;0.70;;
69030;SDS011;56083;48.774;8.942;2023-11-19T12:52:42;3.08;;;0.73;;
69030;SDS011;56083;48.774;8.942;2023-11-19T12:57:54;3.78;;;0.57;;
69030;SDS011;56083;48.774;8.942;2023-11-19T13:00:24;1.95;;;0.50;;
69030;SDS011;56083;48.774;8.942;2023-11-19T13:02:54;0.73;;;0.40;;
69030;SDS011;56083;48.774;8.942;2023-11-19T13:08:10;2.97;;;0.70;;
69030;SDS011;56083;48.774;8.942;2023-11-19T13:13:16;2.28;;;0.60;;
69030;SDS011;56083;48.774;8.942;2023-11-19T13:15:41;2.80;;;0.50;;
69030;SDS011;56083;48.774;8.942;2023-11-19T13:18:09;4.82;;;0.93;;
69030;SDS011;56083;48.774;8.942;2023-11-19T13:20:35;2.33;;;0.73;;
69030;SDS011;56083;48.774;8.942;2023-11-19T13:23:04;2.13;;;0.60;;
69030;SDS011;56083;48.774;8.942;2023-11-19T13:25:31;1.73;;;0.50;;
69030;SDS011;56083;48.774;8.942;2023-11-19T13:27:58;1.67;;;0.40;;
69030;SDS011;56083;48.774;8.942;2023-11-19T13:30:24;2.45;;;0.52;;
69030;SDS011;56083;48.774;8.942;2023-11-19T13:32:51;1.60;;;0.50;;
69030;SDS011;56083;48.774;8.942;2023-11-19T13:35:19;1.60;;;0.50;;
69030;SDS011;56083;48.774;8.942;2023-11-19T13:37:46;2.70;;;0.50;;
69030;SDS011;56083;48.774;8.942;2023-11-19T13:40:12;5.38;;;0.70;;
69030;SDS011;56083;48.774;8.942;2023-11-19T13:42:39;2.03;;;0.60;;
69030;SDS011;56083;48.774;8.942;2023-11-19T13:45:15;2.03;;;0.60;;
69030;SDS011;56083;48.774;8.942;2023-11-19T13:47:43;2.80;;;0.88;;
69030;SDS011;56083;48.774;8.942;2023-11-19T13:50:12;3.85;;;0.68;;
69030;SDS011;56083;48.774;8.942;2023-11-19T13:52:40;1.90;;;0.57;;
69030;SDS011;56083;48.774;8.942;2023-11-19T13:55:07;1.50;;;0.52;;
69030;SDS011;56083;48.774;8.942;2023-11-19T13:57:35;1.00;;;0.50;;
69030;SDS011;56083;48.774;8.942;2023-11-19T14:00:02;5.55;;;1.55;;
69030;SDS011;56083;48.774;8.942;2023-11-19T14:02:31;2.95;;;0.55;;
69030;SDS011;56083;48.774;8.942;2023-11-19T14:04:57;2.08;;;0.52;;
69030;SDS011;56083;48.774;8.942;2023-11-19T14:07:25;5.32;;;0.73;;
69030;SDS011;56083;48.774;8.942;2023-11-19T14:09:50;1.08;;;0.40;;
69030;SDS011;56083;48.774;8.942;2023-11-19T14:12:16;2.63;;;0.57;;
69030;SDS011;56083;48.774;8.942;2023-11-19T14:14:42;1.55;;;0.50;;
69030;SDS011;56083;48.774;8.942;2023-11-19T14:17:08;2.42;;;0.80;;
69030;SDS011;56083;48.774;8.942;2023-11-19T14:19:35;2.90;;;0.75;;
69030;SDS011;56083;48.774;8.942;2023-11-19T14:22:01;2.47;;;0.63;;
69030;SDS011;56083;48.774;8.942;2023-11-19T14:24:28;2.22;;;0.57;;
69030;SDS011;56083;48.774;8.942;2023-11-19T14:26:53;3.38;;;0.57;;
69030;SDS011;56083;48.774;8.942;2023-11-19T14:29:23;2.63;;;0.63;;
69030;SDS011;56083;48.774;8.942;2023-11-19T14:31:48;1.95;;;0.60;;
69030;SDS011;56083;48.774;8.942;2023-11-19T14:34:14;2.75;;;0.80;;
69030;SDS011;56083;48.774;8.942;2023-11-19T14:36:39;2.58;;;0.50;;
69030;SDS011;56083;48.774;8.942;2023-11-19T14:39:06;2.20;;;0.80;;
69030;SDS011;56083;48.774;8.942;2023-11-19T14:41:32;1.60;;;0.70;;
69030;SDS011;56083;48.774;8.942;2023-11-19T14:43:59;4.35;;;0.80;;
69030;SDS011;56083;48.774;8.942;2023-11-19T14:46:26;3.78;;;0.93;;
69030;SDS011;56083;48.774;8.942;2023-11-19T14:48:52;5.03;;;1.38;;
69030;SDS011;56083;48.774;8.942;2023-11-19T14:51:18;6.95;;;1.20;;
69030;SDS011;56083;48.774;8.942;2023-11-19T14:53:45;3.88;;;0.80;;
69030;SDS011;56083;48.774;8.942;2023-11-19T14:56:12;2.33;;;0.85;;
69030;SDS011;56083;48.774;8.942;2023-11-19T14:58:39;1.23;;;0.60;;
69030;SDS011;56083;48.774;8.942;2023-11-19T15:01:05;1.63;;;0.63;;
69030;SDS011;56083;48.774;8.942;2023-11-19T15:03:32;3.30;;;0.77;;
69030;SDS011;56083;48.774;8.942;2023-11-19T15:05:58;2.80;;;0.90;;
69030;SDS011;56083;48.774;8.942;2023-11-19T15:08:24;2.85;;;0.95;;
69030;SDS011;56083;48.774;8.942;2023-11-19T15:10:51;1.67;;;0.70;;
69030;SDS011;56083;48.774;8.942;2023-11-19T15:13:17;5.78;;;0.70;;
69030;SDS011;56083;48.774;8.942;2023-11-19T15:15:44;9.57;;;0.75;;
69030;SDS011;56083;48.774;8.942;2023-11-19T15:18:10;4.63;;;0.60;;
69030;SDS011;56083;48.774;8.942;2023-11-19T15:20:36;3.08;;;0.75;;
69030;SDS011;56083;48.774;8.942;2023-11-19T15:23:03;4.20;;;0.90;;
69030;SDS011;56083;48.774;8.942;2023-11-19T15:25:29;3.78;;;0.90;;
69030;SDS011;56083;48.774;8.942;2023-11-19T15:27:55;2.95;;;0.60;;
69030;SDS011;56083;48.774;8.942;2023-11-19T15:30:22;6.55;;;0.80;;
69030;SDS011;56083;48.774;8.942;2023-11-19T15:32:48;2.65;;;0.70;;
69030;SDS011;56083;48.774;8.942;2023-11-19T15:35:15;2.45;;;0.88;;
69030;SDS011;56083;48.774;8.942;2023-11-19T15:37:41;4.28;;;1.02;;